sensor_id;sensor_type;location;lat;lon;timestamp;temperature;humidity
4556;DHT22;2290;48.674;9.018;2023-08-31T00:02:14;14.60;99.90
4556;DHT22;2290;48.674;9.018;2023-08-31T00:04:39;14.60;99.90
4556;DHT22;2290;48.674;9.018;2023-08-31T00:07:05;14.60;99.90
4556;DHT22;2290;48.674;9.018;2023-08-31T00:09:30;14.60;99.90
4556;DHT22;2290;48.674;9.018;2023-08-31T00:11:56;14.50;99.90
4556;DHT22;2290;48.674;9.018;2023-08-31T00:14:23;14.40;99.90
4556;DHT22;2290;48.674;9.018;2023-08-31T00:16:50;14.40;99.90
4556;DHT22;2290;48.674;9.018;2023-08-31T00:19:16;14.40;99.90
4556;DHT22;2290;48.674;9.018;2023-08-31T00:21:42;14.40;99.90
4556;DHT22;2290;48.674;9.018;2023-08-31T00:24:08;14.50;99.90
4556;DHT22;2290;48.674;9.018;2023-08-31T00:26:35;14.40;99.90
4556;DHT22;2290;48.674;9.018;2023-08-31T00:29:06;14.40;99.90
4556;DHT22;2290;48.674;9.018;2023-08-31T00:31:32;14.40;99.90
4556;DHT22;2290;48.674;9.018;2023-08-31T00:33:57;14.40;99.90
4556;DHT22;2290;48.674;9.018;2023-08-31T00:36:23;14.30;99.90
4556;DHT22;2290;48.674;9.018;2023-08-31T00:38:48;14.20;99.90
4556;DHT22;2290;48.674;9.018;2023-08-31T00:41:14;14.20;99.90
4556;DHT22;2290;48.674;9.018;2023-08-31T00:43:40;14.20;99.90
4556;DHT22;2290;48.674;9.018;2023-08-31T00:46:06;14.10;99.90
4556;DHT22;2290;48.674;9.018;2023-08-31T00:48:34;14.10;99.90
4556;DHT22;2290;48.674;9.018;2023-08-31T00:50:59;14.10;99.90
4556;DHT22;2290;48.674;9.018;2023-08-31T00:53:26;14.00;99.90
4556;DHT22;2290;48.674;9.018;2023-08-31T00:55:52;14.00;99.90
4556;DHT22;2290;48.674;9.018;2023-08-31T00:58:17;14.00;99.90
4556;DHT22;2290;48.674;9.018;2023-08-31T01:00:45;13.90;99.90
4556;DHT22;2290;48.674;9.018;2023-08-31T01:03:18;14.00;99.90
4556;DHT22;2290;48.674;9.018;2023-08-31T01:08:46;13.90;99.90
4556;DHT22;2290;48.674;9.018;2023-08-31T01:14:17;13.90;99.90
4556;DHT22;2290;48.674;9.018;2023-08-31T01:16:48;13.80;99.90
4556;DHT22;2290;48.674;9.018;2023-08-31T01:22:31;13.80;99.90
4556;DHT22;2290;48.674;9.018;2023-08-31T01:24:59;13.80;99.90
4556;DHT22;2290;48.674;9.018;2023-08-31T01:27:32;13.80;99.90
4556;DHT22;2290;48.674;9.018;2023-08-31T01:29:58;13.80;99.90
4556;DHT22;2290;48.674;9.018;2023-08-31T01:32:24;13.70;99.90
4556;DHT22;2290;48.674;9.018;2023-08-31T01:34:50;13.80;99.90
4556;DHT22;2290;48.674;9.018;2023-08-31T01:42:42;13.70;99.90
4556;DHT22;2290;48.674;9.018;2023-08-31T01:45:08;13.60;99.90
4556;DHT22;2290;48.674;9.018;2023-08-31T01:47:35;13.60;99.90
4556;DHT22;2290;48.674;9.018;2023-08-31T01:50:01;13.50;99.90
4556;DHT22;2290;48.674;9.018;2023-08-31T01:52:27;13.50;99.90
4556;DHT22;2290;48.674;9.018;2023-08-31T01:54:53;13.50;99.90
4556;DHT22;2290;48.674;9.018;2023-08-31T01:57:18;13.50;99.90
4556;DHT22;2290;48.674;9.018;2023-08-31T01:59:44;13.40;99.90
4556;DHT22;2290;48.674;9.018;2023-08-31T02:02:09;13.40;99.90
4556;DHT22;2290;48.674;9.018;2023-08-31T02:04:35;13.40;99.90
4556;DHT22;2290;48.674;9.018;2023-08-31T02:07:00;13.40;99.90
4556;DHT22;2290;48.674;9.018;2023-08-31T02:09:26;13.50;99.90
4556;DHT22;2290;48.674;9.018;2023-08-31T02:11:52;13.40;99.90
4556;DHT22;2290;48.674;9.018;2023-08-31T02:14:18;13.50;99.90
4556;DHT22;2290;48.674;9.018;2023-08-31T02:16:43;13.40;99.90
4556;DHT22;2290;48.674;9.018;2023-08-31T02:19:11;13.40;99.90
4556;DHT22;2290;48.674;9.018;2023-08-31T02:21:37;13.40;99.90
4556;DHT22;2290;48.674;9.018;2023-08-31T02:24:03;13.30;99.90
4556;DHT22;2290;48.674;9.018;2023-08-31T02:26:29;13.30;99.90
4556;DHT22;2290;48.674;9.018;2023-08-31T02:28:55;13.30;99.90
4556;DHT22;2290;48.674;9.018;2023-08-31T02:31:20;13.30;99.90
4556;DHT22;2290;48.674;9.018;2023-08-31T02:33:46;13.30;99.90
4556;DHT22;2290;48.674;9.018;2023-08-31T02:36:12;13.30;99.90
4556;DHT22;2290;48.674;9.018;2023-08-31T02:38:38;13.20;99.90
4556;DHT22;2290;48.674;9.018;2023-08-31T02:41:03;13.20;99.90
4556;DHT22;2290;48.674;9.018;2023-08-31T02:43:29;13.30;99.90
4556;DHT22;2290;48.674;9.018;2023-08-31T02:45:59;13.30;99.90
4556;DHT22;2290;48.674;9.018;2023-08-31T02:48:27;13.20;99.90
4556;DHT22;2290;48.674;9.018;2023-08-31T02:50:53;13.30;99.90
4556;DHT22;2290;48.674;9.018;2023-08-31T02:53:19;13.30;99.90
4556;DHT22;2290;48.674;9.018;2023-08-31T02:55:45;13.20;99.90
4556;DHT22;2290;48.674;9.018;2023-08-31T02:58:10;13.30;99.90
4556;DHT22;2290;48.674;9.018;2023-08-31T03:00:36;13.20;99.90
4556;DHT22;2290;48.674;9.018;2023-08-31T03:03:05;13.10;99.90
4556;DHT22;2290;48.674;9.018;2023-08-31T03:05:30;13.10;99.90
4556;DHT22;2290;48.674;9.018;2023-08-31T03:07:56;13.10;99.90
4556;DHT22;2290;48.674;9.018;2023-08-31T03:10:22;13.10;99.90
4556;DHT22;2290;48.674;9.018;2023-08-31T03:12:48;13.10;99.90
4556;DHT22;2290;48.674;9.018;2023-08-31T03:15:13;13.10;99.90
4556;DHT22;2290;48.674;9.018;2023-08-31T03:17:39;13.10;99.90
4556;DHT22;2290;48.674;9.018;2023-08-31T03:20:05;13.10;99.90
4556;DHT22;2290;48.674;9.018;2023-08-31T03:22:33;13.00;99.90
4556;DHT22;2290;48.674;9.018;2023-08-31T03:24:58;13.20;99.90
4556;DHT22;2290;48.674;9.018;2023-08-31T03:27:25;13.10;99.90
4556;DHT22;2290;48.674;9.018;2023-08-31T03:29:50;13.00;99.90
4556;DHT22;2290;48.674;9.018;2023-08-31T03:32:16;13.20;99.90
4556;DHT22;2290;48.674;9.018;2023-08-31T03:34:41;13.10;99.90
4556;DHT22;2290;48.674;9.018;2023-08-31T03:37:08;13.00;99.90
4556;DHT22;2290;48.674;9.018;2023-08-31T03:39:34;13.20;99.90
4556;DHT22;2290;48.674;9.018;2023-08-31T03:42:00;13.10;99.90
4556;DHT22;2290;48.674;9.018;2023-08-31T03:44:25;13.10;99.90
4556;DHT22;2290;48.674;9.018;2023-08-31T03:46:51;13.10;99.90
4556;DHT22;2290;48.674;9.018;2023-08-31T03:49:16;13.00;99.90
4556;DHT22;2290;48.674;9.018;2023-08-31T03:51:42;13.00;99.90
4556;DHT22;2290;48.674;9.018;2023-08-31T03:54:09;12.90;99.90
4556;DHT22;2290;48.674;9.018;2023-08-31T03:56:35;13.00;99.90
4556;DHT22;2290;48.674;9.018;2023-08-31T03:59:02;13.00;99.90
4556;DHT22;2290;48.674;9.018;2023-08-31T04:01:29;13.00;99.90
4556;DHT22;2290;48.674;9.018;2023-08-31T04:03:54;13.00;99.90
4556;DHT22;2290;48.674;9.018;2023-08-31T04:06:20;13.10;99.90
4556;DHT22;2290;48.674;9.018;2023-08-31T04:08:46;13.10;99.90
4556;DHT22;2290;48.674;9.018;2023-08-31T04:11:11;13.10;99.90
4556;DHT22;2290;48.674;9.018;2023-08-31T04:13:37;13.10;99.90
4556;DHT22;2290;48.674;9.018;2023-08-31T04:16:02;13.10;99.90
4556;DHT22;2290;48.674;9.018;2023-08-31T04:18:28;13.10;99.90
4556;DHT22;2290;48.674;9.018;2023-08-31T04:20:54;13.10;99.90
4556;DHT22;2290;48.674;9.018;2023-08-31T04:23:20;13.00;99.90
4556;DHT22;2290;48.674;9.018;2023-08-31T04:25:47;13.10;99.90
4556;DHT22;2290;48.674;9.018;2023-08-31T04:28:13;13.00;99.90
4556;DHT22;2290;48.674;9.018;2023-08-31T04:30:42;13.00;99.90
4556;DHT22;2290;48.674;9.018;2023-08-31T04:33:08;12.90;99.90
4556;DHT22;2290;48.674;9.018;2023-08-31T04:35:35;12.90;99.90
4556;DHT22;2290;48.674;9.018;2023-08-31T04:38:01;12.90;99.90
4556;DHT22;2290;48.674;9.018;2023-08-31T04:40:28;12.90;99.90
4556;DHT22;2290;48.674;9.018;2023-08-31T04:42:56;12.90;99.90
4556;DHT22;2290;48.674;9.018;2023-08-31T04:45:22;12.90;99.90
4556;DHT22;2290;48.674;9.018;2023-08-31T04:47:48;13.00;99.90
4556;DHT22;2290;48.674;9.018;2023-08-31T04:50:14;13.00;99.90
4556;DHT22;2290;48.674;9.018;2023-08-31T04:52:40;13.00;99.90
4556;DHT22;2290;48.674;9.018;2023-08-31T04:55:07;13.00;99.90
4556;DHT22;2290;48.674;9.018;2023-08-31T04:57:33;13.00;99.90
4556;DHT22;2290;48.674;9.018;2023-08-31T04:59:58;13.00;99.90
4556;DHT22;2290;48.674;9.018;2023-08-31T05:02:24;13.00;99.90
4556;DHT22;2290;48.674;9.018;2023-08-31T05:04:50;13.10;99.90
4556;DHT22;2290;48.674;9.018;2023-08-31T05:07:16;13.10;99.90
4556;DHT22;2290;48.674;9.018;2023-08-31T05:09:41;13.20;99.90
4556;DHT22;2290;48.674;9.018;2023-08-31T05:12:07;13.20;99.90
4556;DHT22;2290;48.674;9.018;2023-08-31T05:14:34;13.20;99.90
4556;DHT22;2290;48.674;9.018;2023-08-31T05:17:03;13.20;99.90
4556;DHT22;2290;48.674;9.018;2023-08-31T05:19:30;13.20;99.90
4556;DHT22;2290;48.674;9.018;2023-08-31T05:21:55;13.20;99.90
4556;DHT22;2290;48.674;9.018;2023-08-31T05:24:21;13.20;99.90
4556;DHT22;2290;48.674;9.018;2023-08-31T05:26:47;13.10;99.90
4556;DHT22;2290;48.674;9.018;2023-08-31T05:29:12;13.10;99.90
4556;DHT22;2290;48.674;9.018;2023-08-31T05:31:38;13.20;99.90
4556;DHT22;2290;48.674;9.018;2023-08-31T05:34:03;13.20;99.90
4556;DHT22;2290;48.674;9.018;2023-08-31T05:36:29;13.20;99.90
4556;DHT22;2290;48.674;9.018;2023-08-31T05:38:56;13.20;99.90
4556;DHT22;2290;48.674;9.018;2023-08-31T05:41:21;13.30;99.90
4556;DHT22;2290;48.674;9.018;2023-08-31T05:43:47;13.30;99.90
4556;DHT22;2290;48.674;9.018;2023-08-31T05:46:12;13.20;99.90
4556;DHT22;2290;48.674;9.018;2023-08-31T05:48:38;13.20;99.90
4556;DHT22;2290;48.674;9.018;2023-08-31T05:51:05;13.30;99.90
4556;DHT22;2290;48.674;9.018;2023-08-31T05:53:31;13.30;99.90
4556;DHT22;2290;48.674;9.018;2023-08-31T05:55:57;13.30;99.90
4556;DHT22;2290;48.674;9.018;2023-08-31T05:58:32;13.40;99.90
4556;DHT22;2290;48.674;9.018;2023-08-31T06:01:01;13.40;99.90
4556;DHT22;2290;48.674;9.018;2023-08-31T06:03:26;13.50;99.90
4556;DHT22;2290;48.674;9.018;2023-08-31T06:05:53;13.50;99.90
4556;DHT22;2290;48.674;9.018;2023-08-31T06:08:18;13.60;99.90
4556;DHT22;2290;48.674;9.018;2023-08-31T06:10:44;13.60;99.90
4556;DHT22;2290;48.674;9.018;2023-08-31T06:13:10;13.60;99.90
4556;DHT22;2290;48.674;9.018;2023-08-31T06:15:37;13.60;99.90
4556;DHT22;2290;48.674;9.018;2023-08-31T06:18:02;13.50;99.90
4556;DHT22;2290;48.674;9.018;2023-08-31T06:20:28;13.40;99.90
4556;DHT22;2290;48.674;9.018;2023-08-31T06:22:53;13.40;99.90
4556;DHT22;2290;48.674;9.018;2023-08-31T06:25:19;13.40;99.90
4556;DHT22;2290;48.674;9.018;2023-08-31T06:27:46;13.50;99.90
4556;DHT22;2290;48.674;9.018;2023-08-31T06:30:13;13.50;99.90
4556;DHT22;2290;48.674;9.018;2023-08-31T06:32:43;13.60;99.90
4556;DHT22;2290;48.674;9.018;2023-08-31T06:35:10;13.60;99.90
4556;DHT22;2290;48.674;9.018;2023-08-31T06:37:37;13.70;99.90
4556;DHT22;2290;48.674;9.018;2023-08-31T06:40:03;13.90;99.90
4556;DHT22;2290;48.674;9.018;2023-08-31T06:42:29;13.90;99.90
4556;DHT22;2290;48.674;9.018;2023-08-31T06:44:55;14.00;99.90
4556;DHT22;2290;48.674;9.018;2023-08-31T06:47:22;14.00;99.90
4556;DHT22;2290;48.674;9.018;2023-08-31T06:49:48;14.00;99.90
4556;DHT22;2290;48.674;9.018;2023-08-31T06:52:13;14.00;99.90
4556;DHT22;2290;48.674;9.018;2023-08-31T06:54:39;14.10;99.90
4556;DHT22;2290;48.674;9.018;2023-08-31T06:57:05;14.20;99.90
4556;DHT22;2290;48.674;9.018;2023-08-31T06:59:30;14.20;99.90
4556;DHT22;2290;48.674;9.018;2023-08-31T07:01:56;14.20;99.90
4556;DHT22;2290;48.674;9.018;2023-08-31T07:04:22;14.30;99.90
4556;DHT22;2290;48.674;9.018;2023-08-31T07:06:48;14.40;99.90
4556;DHT22;2290;48.674;9.018;2023-08-31T07:09:13;14.40;99.90
4556;DHT22;2290;48.674;9.018;2023-08-31T07:11:39;14.40;99.90
4556;DHT22;2290;48.674;9.018;2023-08-31T07:14:05;14.40;99.90
4556;DHT22;2290;48.674;9.018;2023-08-31T07:16:30;14.50;99.90
4556;DHT22;2290;48.674;9.018;2023-08-31T07:18:56;14.50;99.90
4556;DHT22;2290;48.674;9.018;2023-08-31T07:21:23;14.60;99.90
4556;DHT22;2290;48.674;9.018;2023-08-31T07:23:48;14.70;99.90
4556;DHT22;2290;48.674;9.018;2023-08-31T07:26:14;14.60;99.90
4556;DHT22;2290;48.674;9.018;2023-08-31T07:28:42;14.60;99.90
4556;DHT22;2290;48.674;9.018;2023-08-31T07:31:08;14.70;99.90
4556;DHT22;2290;48.674;9.018;2023-08-31T07:33:34;14.60;99.90
4556;DHT22;2290;48.674;9.018;2023-08-31T07:36:01;14.70;99.90
4556;DHT22;2290;48.674;9.018;2023-08-31T07:38:27;14.80;99.90
4556;DHT22;2290;48.674;9.018;2023-08-31T07:40:53;14.80;99.90
4556;DHT22;2290;48.674;9.018;2023-08-31T07:43:18;14.90;99.90
4556;DHT22;2290;48.674;9.018;2023-08-31T07:45:45;15.00;99.90
4556;DHT22;2290;48.674;9.018;2023-08-31T07:48:11;15.10;99.90
4556;DHT22;2290;48.674;9.018;2023-08-31T07:50:36;15.20;99.90
4556;DHT22;2290;48.674;9.018;2023-08-31T07:53:02;15.30;99.90
4556;DHT22;2290;48.674;9.018;2023-08-31T07:55:29;15.40;99.90
4556;DHT22;2290;48.674;9.018;2023-08-31T07:57:54;15.50;99.90
4556;DHT22;2290;48.674;9.018;2023-08-31T08:00:20;15.60;99.90
4556;DHT22;2290;48.674;9.018;2023-08-31T08:02:45;15.70;99.90
4556;DHT22;2290;48.674;9.018;2023-08-31T08:05:11;15.80;99.90
4556;DHT22;2290;48.674;9.018;2023-08-31T08:07:37;15.80;99.90
4556;DHT22;2290;48.674;9.018;2023-08-31T08:10:03;15.80;99.90
4556;DHT22;2290;48.674;9.018;2023-08-31T08:12:40;16.00;99.90
4556;DHT22;2290;48.674;9.018;2023-08-31T08:15:06;16.20;99.90
4556;DHT22;2290;48.674;9.018;2023-08-31T08:17:33;16.20;99.90
4556;DHT22;2290;48.674;9.018;2023-08-31T08:19:59;16.20;99.90
4556;DHT22;2290;48.674;9.018;2023-08-31T08:22:25;16.30;99.90
4556;DHT22;2290;48.674;9.018;2023-08-31T08:24:50;16.30;99.90
4556;DHT22;2290;48.674;9.018;2023-08-31T08:27:16;16.20;99.90
4556;DHT22;2290;48.674;9.018;2023-08-31T08:29:46;16.10;99.90
4556;DHT22;2290;48.674;9.018;2023-08-31T08:32:13;16.10;99.90
4556;DHT22;2290;48.674;9.018;2023-08-31T08:34:38;16.10;99.90
4556;DHT22;2290;48.674;9.018;2023-08-31T08:37:04;16.30;99.90
4556;DHT22;2290;48.674;9.018;2023-08-31T08:39:30;16.30;99.90
4556;DHT22;2290;48.674;9.018;2023-08-31T08:41:58;16.40;99.90
4556;DHT22;2290;48.674;9.018;2023-08-31T08:44:30;16.50;99.90
4556;DHT22;2290;48.674;9.018;2023-08-31T08:46:58;16.60;99.90
4556;DHT22;2290;48.674;9.018;2023-08-31T08:49:24;16.60;99.90
4556;DHT22;2290;48.674;9.018;2023-08-31T08:51:51;16.50;99.90
4556;DHT22;2290;48.674;9.018;2023-08-31T08:54:18;16.60;99.90
4556;DHT22;2290;48.674;9.018;2023-08-31T08:56:44;16.70;99.90
4556;DHT22;2290;48.674;9.018;2023-08-31T08:59:09;16.80;99.90
4556;DHT22;2290;48.674;9.018;2023-08-31T09:01:39;16.80;99.90
4556;DHT22;2290;48.674;9.018;2023-08-31T09:04:05;16.50;99.90
4556;DHT22;2290;48.674;9.018;2023-08-31T09:06:32;16.50;99.90
4556;DHT22;2290;48.674;9.018;2023-08-31T09:08:59;16.50;99.90
4556;DHT22;2290;48.674;9.018;2023-08-31T09:11:25;16.50;99.90
4556;DHT22;2290;48.674;9.018;2023-08-31T09:13:53;16.50;99.90
4556;DHT22;2290;48.674;9.018;2023-08-31T09:16:31;16.50;99.90
4556;DHT22;2290;48.674;9.018;2023-08-31T09:18:58;16.60;99.90
4556;DHT22;2290;48.674;9.018;2023-08-31T09:21:37;16.60;99.90
4556;DHT22;2290;48.674;9.018;2023-08-31T09:24:05;16.90;99.90
4556;DHT22;2290;48.674;9.018;2023-08-31T09:26:37;17.10;99.90
4556;DHT22;2290;48.674;9.018;2023-08-31T09:29:07;17.20;99.90
4556;DHT22;2290;48.674;9.018;2023-08-31T09:31:33;17.50;99.90
4556;DHT22;2290;48.674;9.018;2023-08-31T09:33:59;17.70;99.90
4556;DHT22;2290;48.674;9.018;2023-08-31T09:36:26;17.90;99.90
4556;DHT22;2290;48.674;9.018;2023-08-31T09:38:57;18.10;99.90
4556;DHT22;2290;48.674;9.018;2023-08-31T09:41:23;17.90;99.90
4556;DHT22;2290;48.674;9.018;2023-08-31T09:43:50;17.80;99.90
4556;DHT22;2290;48.674;9.018;2023-08-31T09:46:16;17.80;99.90
4556;DHT22;2290;48.674;9.018;2023-08-31T09:48:42;17.80;99.90
4556;DHT22;2290;48.674;9.018;2023-08-31T09:51:10;17.70;99.90
4556;DHT22;2290;48.674;9.018;2023-08-31T09:53:37;17.60;99.90
4556;DHT22;2290;48.674;9.018;2023-08-31T09:56:05;17.50;99.90
4556;DHT22;2290;48.674;9.018;2023-08-31T09:58:33;17.70;99.90
4556;DHT22;2290;48.674;9.018;2023-08-31T10:01:00;17.70;99.90
4556;DHT22;2290;48.674;9.018;2023-08-31T10:03:26;17.80;99.90
4556;DHT22;2290;48.674;9.018;2023-08-31T10:05:54;17.90;99.90
4556;DHT22;2290;48.674;9.018;2023-08-31T10:08:20;18.10;99.90
4556;DHT22;2290;48.674;9.018;2023-08-31T10:10:46;18.10;99.90
4556;DHT22;2290;48.674;9.018;2023-08-31T10:13:14;18.10;99.90
4556;DHT22;2290;48.674;9.018;2023-08-31T10:15:43;18.10;99.90
4556;DHT22;2290;48.674;9.018;2023-08-31T10:18:09;18.10;99.90
4556;DHT22;2290;48.674;9.018;2023-08-31T10:20:36;18.00;99.90
4556;DHT22;2290;48.674;9.018;2023-08-31T10:23:03;18.10;99.90
4556;DHT22;2290;48.674;9.018;2023-08-31T10:26:02;18.10;99.90
4556;DHT22;2290;48.674;9.018;2023-08-31T10:28:29;18.10;99.90
4556;DHT22;2290;48.674;9.018;2023-08-31T10:31:02;18.10;99.90
4556;DHT22;2290;48.674;9.018;2023-08-31T10:33:31;18.40;99.90
4556;DHT22;2290;48.674;9.018;2023-08-31T10:35:57;18.30;99.90
4556;DHT22;2290;48.674;9.018;2023-08-31T10:38:41;18.10;99.90
4556;DHT22;2290;48.674;9.018;2023-08-31T10:43:49;18.10;99.90
4556;DHT22;2290;48.674;9.018;2023-08-31T10:48:56;18.80;99.90
4556;DHT22;2290;48.674;9.018;2023-08-31T10:51:30;18.90;99.90
4556;DHT22;2290;48.674;9.018;2023-08-31T10:54:12;19.10;99.90
4556;DHT22;2290;48.674;9.018;2023-08-31T10:59:55;19.10;99.90
4556;DHT22;2290;48.674;9.018;2023-08-31T11:05:14;19.30;99.90
4556;DHT22;2290;48.674;9.018;2023-08-31T11:07:41;19.20;99.90
4556;DHT22;2290;48.674;9.018;2023-08-31T11:12:35;19.40;99.90
4556;DHT22;2290;48.674;9.018;2023-08-31T11:15:00;19.50;99.90
4556;DHT22;2290;48.674;9.018;2023-08-31T11:17:27;19.60;99.90
4556;DHT22;2290;48.674;9.018;2023-08-31T11:19:52;19.50;99.90
4556;DHT22;2290;48.674;9.018;2023-08-31T11:22:18;19.30;99.90
4556;DHT22;2290;48.674;9.018;2023-08-31T11:24:44;19.00;99.90
4556;DHT22;2290;48.674;9.018;2023-08-31T11:27:10;18.70;99.90
4556;DHT22;2290;48.674;9.018;2023-08-31T11:29:43;18.70;99.90
4556;DHT22;2290;48.674;9.018;2023-08-31T11:32:09;18.80;99.90
4556;DHT22;2290;48.674;9.018;2023-08-31T11:34:35;18.80;99.90
4556;DHT22;2290;48.674;9.018;2023-08-31T11:37:03;19.00;99.90
4556;DHT22;2290;48.674;9.018;2023-08-31T11:39:28;19.00;99.90
4556;DHT22;2290;48.674;9.018;2023-08-31T11:41:54;19.20;99.90
4556;DHT22;2290;48.674;9.018;2023-08-31T11:44:20;19.40;99.90
4556;DHT22;2290;48.674;9.018;2023-08-31T11:46:48;19.40;99.90
4556;DHT22;2290;48.674;9.018;2023-08-31T11:49:17;19.50;99.90
4556;DHT22;2290;48.674;9.018;2023-08-31T11:51:43;19.50;99.90
4556;DHT22;2290;48.674;9.018;2023-08-31T11:54:10;19.70;99.90
4556;DHT22;2290;48.674;9.018;2023-08-31T11:56:41;19.50;99.90
4556;DHT22;2290;48.674;9.018;2023-08-31T11:59:12;19.60;99.90
4556;DHT22;2290;48.674;9.018;2023-08-31T12:01:41;20.00;99.90
4556;DHT22;2290;48.674;9.018;2023-08-31T12:04:12;20.20;99.90
4556;DHT22;2290;48.674;9.018;2023-08-31T12:06:39;20.40;99.90
4556;DHT22;2290;48.674;9.018;2023-08-31T12:09:07;20.40;99.90
4556;DHT22;2290;48.674;9.018;2023-08-31T12:11:32;20.20;99.90
4556;DHT22;2290;48.674;9.018;2023-08-31T12:14:03;20.20;99.90
4556;DHT22;2290;48.674;9.018;2023-08-31T12:16:35;20.30;99.90
4556;DHT22;2290;48.674;9.018;2023-08-31T12:19:05;20.40;99.90
4556;DHT22;2290;48.674;9.018;2023-08-31T12:21:31;20.70;99.90
4556;DHT22;2290;48.674;9.018;2023-08-31T12:23:58;20.80;99.90
4556;DHT22;2290;48.674;9.018;2023-08-31T12:26:25;20.90;99.90
4556;DHT22;2290;48.674;9.018;2023-08-31T12:28:51;20.90;99.90
4556;DHT22;2290;48.674;9.018;2023-08-31T12:31:17;21.20;99.90
4556;DHT22;2290;48.674;9.018;2023-08-31T12:33:44;21.20;99.60
4556;DHT22;2290;48.674;9.018;2023-08-31T12:36:09;21.30;99.90
4556;DHT22;2290;48.674;9.018;2023-08-31T12:38:36;21.30;99.90
4556;DHT22;2290;48.674;9.018;2023-08-31T12:41:01;21.50;99.90
4556;DHT22;2290;48.674;9.018;2023-08-31T12:43:28;21.50;99.90
4556;DHT22;2290;48.674;9.018;2023-08-31T12:45:56;21.20;99.90
4556;DHT22;2290;48.674;9.018;2023-08-31T12:48:23;21.00;99.90
4556;DHT22;2290;48.674;9.018;2023-08-31T12:50:48;20.80;99.90
4556;DHT22;2290;48.674;9.018;2023-08-31T12:53:15;20.90;99.90
4556;DHT22;2290;48.674;9.018;2023-08-31T12:55:41;21.10;99.90
4556;DHT22;2290;48.674;9.018;2023-08-31T12:58:07;21.00;99.90
4556;DHT22;2290;48.674;9.018;2023-08-31T13:00:32;20.60;99.90
4556;DHT22;2290;48.674;9.018;2023-08-31T13:02:59;20.30;99.90
4556;DHT22;2290;48.674;9.018;2023-08-31T13:05:26;20.10;99.90
4556;DHT22;2290;48.674;9.018;2023-08-31T13:07:53;19.90;99.90
4556;DHT22;2290;48.674;9.018;2023-08-31T13:10:18;19.70;99.90
4556;DHT22;2290;48.674;9.018;2023-08-31T13:12:45;19.60;99.90
4556;DHT22;2290;48.674;9.018;2023-08-31T13:15:11;19.60;99.90
4556;DHT22;2290;48.674;9.018;2023-08-31T13:17:37;19.80;99.90
4556;DHT22;2290;48.674;9.018;2023-08-31T13:20:02;20.20;99.90
4556;DHT22;2290;48.674;9.018;2023-08-31T13:22:29;20.70;99.90
4556;DHT22;2290;48.674;9.018;2023-08-31T13:24:55;20.90;99.90
4556;DHT22;2290;48.674;9.018;2023-08-31T13:27:20;21.10;99.90
4556;DHT22;2290;48.674;9.018;2023-08-31T13:29:46;21.30;99.60
4556;DHT22;2290;48.674;9.018;2023-08-31T13:32:11;21.70;99.90
4556;DHT22;2290;48.674;9.018;2023-08-31T13:34:37;21.80;99.30
4556;DHT22;2290;48.674;9.018;2023-08-31T13:37:03;22.00;99.80
4556;DHT22;2290;48.674;9.018;2023-08-31T13:39:30;22.10;99.90
4556;DHT22;2290;48.674;9.018;2023-08-31T13:41:55;21.60;99.30
4556;DHT22;2290;48.674;9.018;2023-08-31T13:44:21;21.00;99.70
4556;DHT22;2290;48.674;9.018;2023-08-31T13:46:50;20.60;99.90
4556;DHT22;2290;48.674;9.018;2023-08-31T13:49:15;20.30;99.90
4556;DHT22;2290;48.674;9.018;2023-08-31T13:51:42;20.20;99.90
4556;DHT22;2290;48.674;9.018;2023-08-31T13:54:08;19.90;99.90
4556;DHT22;2290;48.674;9.018;2023-08-31T13:56:34;19.80;99.90
4556;DHT22;2290;48.674;9.018;2023-08-31T13:59:03;19.80;99.90
4556;DHT22;2290;48.674;9.018;2023-08-31T14:01:29;19.70;99.90
4556;DHT22;2290;48.674;9.018;2023-08-31T14:03:55;19.50;99.90
4556;DHT22;2290;48.674;9.018;2023-08-31T14:06:23;19.40;99.90
4556;DHT22;2290;48.674;9.018;2023-08-31T14:08:49;19.30;99.90
4556;DHT22;2290;48.674;9.018;2023-08-31T14:11:14;19.40;99.90
4556;DHT22;2290;48.674;9.018;2023-08-31T14:13:43;19.40;99.90
4556;DHT22;2290;48.674;9.018;2023-08-31T14:16:09;19.50;99.90
4556;DHT22;2290;48.674;9.018;2023-08-31T14:18:34;19.70;99.90
4556;DHT22;2290;48.674;9.018;2023-08-31T14:21:00;20.00;99.90
4556;DHT22;2290;48.674;9.018;2023-08-31T14:23:26;20.20;99.90
4556;DHT22;2290;48.674;9.018;2023-08-31T14:25:52;20.60;99.90
4556;DHT22;2290;48.674;9.018;2023-08-31T14:28:18;20.70;99.90
4556;DHT22;2290;48.674;9.018;2023-08-31T14:30:45;20.60;99.90
4556;DHT22;2290;48.674;9.018;2023-08-31T14:33:10;21.00;99.90
4556;DHT22;2290;48.674;9.018;2023-08-31T14:35:37;21.40;99.90
4556;DHT22;2290;48.674;9.018;2023-08-31T14:38:03;21.90;99.90
4556;DHT22;2290;48.674;9.018;2023-08-31T14:40:29;22.10;99.90
4556;DHT22;2290;48.674;9.018;2023-08-31T14:42:57;21.90;99.90
4556;DHT22;2290;48.674;9.018;2023-08-31T14:45:24;21.70;99.90
4556;DHT22;2290;48.674;9.018;2023-08-31T14:47:49;21.20;99.90
4556;DHT22;2290;48.674;9.018;2023-08-31T14:50:15;21.10;99.90
4556;DHT22;2290;48.674;9.018;2023-08-31T14:52:40;21.20;99.90
4556;DHT22;2290;48.674;9.018;2023-08-31T14:55:06;21.00;99.90
4556;DHT22;2290;48.674;9.018;2023-08-31T14:57:32;20.70;99.90
4556;DHT22;2290;48.674;9.018;2023-08-31T14:59:57;20.50;99.90
4556;DHT22;2290;48.674;9.018;2023-08-31T15:02:26;20.60;99.90
4556;DHT22;2290;48.674;9.018;2023-08-31T15:04:52;20.70;99.90
4556;DHT22;2290;48.674;9.018;2023-08-31T15:07:19;20.70;99.90
4556;DHT22;2290;48.674;9.018;2023-08-31T15:09:46;20.30;99.90
4556;DHT22;2290;48.674;9.018;2023-08-31T15:12:12;20.10;99.90
4556;DHT22;2290;48.674;9.018;2023-08-31T15:14:38;19.90;99.90
4556;DHT22;2290;48.674;9.018;2023-08-31T15:17:05;19.70;99.90
4556;DHT22;2290;48.674;9.018;2023-08-31T15:19:31;19.60;99.90
4556;DHT22;2290;48.674;9.018;2023-08-31T15:21:59;19.50;99.90
4556;DHT22;2290;48.674;9.018;2023-08-31T15:24:26;19.30;99.90
4556;DHT22;2290;48.674;9.018;2023-08-31T15:26:52;19.10;99.90
4556;DHT22;2290;48.674;9.018;2023-08-31T15:29:18;19.00;99.90
4556;DHT22;2290;48.674;9.018;2023-08-31T15:31:44;19.00;99.90
4556;DHT22;2290;48.674;9.018;2023-08-31T15:34:10;18.90;99.90
4556;DHT22;2290;48.674;9.018;2023-08-31T15:36:36;18.90;99.90
4556;DHT22;2290;48.674;9.018;2023-08-31T15:39:01;18.90;99.90
4556;DHT22;2290;48.674;9.018;2023-08-31T15:41:29;18.80;99.90
4556;DHT22;2290;48.674;9.018;2023-08-31T15:44:01;18.80;99.90
4556;DHT22;2290;48.674;9.018;2023-08-31T15:46:27;18.70;99.90
4556;DHT22;2290;48.674;9.018;2023-08-31T15:48:53;18.70;99.90
4556;DHT22;2290;48.674;9.018;2023-08-31T15:51:18;18.70;99.90
4556;DHT22;2290;48.674;9.018;2023-08-31T15:53:44;18.60;99.90
4556;DHT22;2290;48.674;9.018;2023-08-31T15:56:09;18.70;99.90
4556;DHT22;2290;48.674;9.018;2023-08-31T15:58:35;18.70;99.90
4556;DHT22;2290;48.674;9.018;2023-08-31T16:01:00;18.80;99.90
4556;DHT22;2290;48.674;9.018;2023-08-31T16:03:27;18.80;99.90
4556;DHT22;2290;48.674;9.018;2023-08-31T16:05:53;18.70;99.90
4556;DHT22;2290;48.674;9.018;2023-08-31T16:08:19;18.70;99.90
4556;DHT22;2290;48.674;9.018;2023-08-31T16:10:44;18.70;99.90
4556;DHT22;2290;48.674;9.018;2023-08-31T16:13:10;18.70;99.90
4556;DHT22;2290;48.674;9.018;2023-08-31T16:15:35;18.70;99.90
4556;DHT22;2290;48.674;9.018;2023-08-31T16:18:02;18.60;99.90
4556;DHT22;2290;48.674;9.018;2023-08-31T16:20:28;18.60;99.90
4556;DHT22;2290;48.674;9.018;2023-08-31T16:22:53;18.50;99.90
4556;DHT22;2290;48.674;9.018;2023-08-31T16:25:19;18.50;99.90
4556;DHT22;2290;48.674;9.018;2023-08-31T16:27:45;18.50;99.90